Login to view Products
 
Saturday, May 28, 2022 (11:35 UTC)
Al Ain International Airport
ICAO: OMAL
IATA: AAN
  • METAR OMAL 281100Z 32014KT 280V340 CAVOK 42/04 Q1003 NOSIG=
  • TAF OMAL 281100Z 2812/2918 32012KT 8000 NSC BECMG 2819/2821 10005KT BECMG 2904/2906 32012KT PROB30 TEMPO 2910/2914 32020KT 4000 BLDU=
11-- D:\Input Parser\Destinations\Final\11\OMAL_TAF.txt-- 28/05/2022-- 28/05/2022-- 3
Last Updated:
Wind Dir/Speed:
Temperature:
Rel. Humidity:
Pressure:
Visibility: